sensor_id;sensor_type;location;lat;lon;timestamp;temperature;humidity
46890;DHT22;32625;51.080;16.970;2022-12-11T00:00:27;0.60;99.90
46890;DHT22;32625;51.080;16.970;2022-12-11T00:02:54;0.60;99.90
46890;DHT22;32625;51.080;16.970;2022-12-11T00:05:22;0.70;99.90
46890;DHT22;32625;51.080;16.970;2022-12-11T00:07:50;0.60;99.90
46890;DHT22;32625;51.080;16.970;2022-12-11T00:10:17;0.60;99.90
46890;DHT22;32625;51.080;16.970;2022-12-11T00:12:44;0.70;99.90
46890;DHT22;32625;51.080;16.970;2022-12-11T00:15:11;0.70;99.90
46890;DHT22;32625;51.080;16.970;2022-12-11T00:17:39;0.70;99.90
46890;DHT22;32625;51.080;16.970;2022-12-11T00:20:06;0.70;99.90
46890;DHT22;32625;51.080;16.970;2022-12-11T00:22:34;0.70;99.90
46890;DHT22;32625;51.080;16.970;2022-12-11T00:25:02;0.90;99.90
46890;DHT22;32625;51.080;16.970;2022-12-11T00:27:29;0.70;99.90
46890;DHT22;32625;51.080;16.970;2022-12-11T00:29:58;0.60;99.90
46890;DHT22;32625;51.080;16.970;2022-12-11T00:32:26;0.60;99.90
46890;DHT22;32625;51.080;16.970;2022-12-11T00:34:54;0.60;99.90
46890;DHT22;32625;51.080;16.970;2022-12-11T00:37:21;0.70;99.90
46890;DHT22;32625;51.080;16.970;2022-12-11T00:39:49;0.70;99.90
46890;DHT22;32625;51.080;16.970;2022-12-11T00:42:16;0.60;99.90
46890;DHT22;32625;51.080;16.970;2022-12-11T00:44:43;0.70;99.90
46890;DHT22;32625;51.080;16.970;2022-12-11T00:48:17;0.70;99.90
46890;DHT22;32625;51.080;16.970;2022-12-11T00:50:46;0.70;99.90
46890;DHT22;32625;51.080;16.970;2022-12-11T00:53:14;0.70;99.90
46890;DHT22;32625;51.080;16.970;2022-12-11T00:55:43;0.60;99.90
46890;DHT22;32625;51.080;16.970;2022-12-11T00:58:11;0.50;99.90
46890;DHT22;32625;51.080;16.970;2022-12-11T01:00:39;0.50;99.90
46890;DHT22;32625;51.080;16.970;2022-12-11T01:03:08;0.60;99.90
46890;DHT22;32625;51.080;16.970;2022-12-11T01:05:38;0.70;99.90
46890;DHT22;32625;51.080;16.970;2022-12-11T01:08:06;0.70;99.90
46890;DHT22;32625;51.080;16.970;2022-12-11T01:10:33;0.70;99.90
46890;DHT22;32625;51.080;16.970;2022-12-11T01:13:05;0.60;99.90
46890;DHT22;32625;51.080;16.970;2022-12-11T01:15:37;0.70;99.90
46890;DHT22;32625;51.080;16.970;2022-12-11T01:18:09;0.60;99.90
46890;DHT22;32625;51.080;16.970;2022-12-11T01:20:38;0.50;99.90
46890;DHT22;32625;51.080;16.970;2022-12-11T01:23:06;0.60;99.90
46890;DHT22;32625;51.080;16.970;2022-12-11T01:25:35;0.60;99.90
46890;DHT22;32625;51.080;16.970;2022-12-11T01:28:04;0.60;99.90
46890;DHT22;32625;51.080;16.970;2022-12-11T01:30:32;0.70;99.90
46890;DHT22;32625;51.080;16.970;2022-12-11T01:32:59;0.60;99.90
46890;DHT22;32625;51.080;16.970;2022-12-11T01:35:27;0.50;99.90
46890;DHT22;32625;51.080;16.970;2022-12-11T01:37:55;0.50;99.90
46890;DHT22;32625;51.080;16.970;2022-12-11T01:40:22;0.50;99.90
46890;DHT22;32625;51.080;16.970;2022-12-11T01:42:49;0.60;99.90
46890;DHT22;32625;51.080;16.970;2022-12-11T01:45:38;0.60;99.90
46890;DHT22;32625;51.080;16.970;2022-12-11T01:48:11;0.60;99.90
46890;DHT22;32625;51.080;16.970;2022-12-11T01:51:00;0.60;99.90
46890;DHT22;32625;51.080;16.970;2022-12-11T01:53:34;0.60;99.90
46890;DHT22;32625;51.080;16.970;2022-12-11T01:56:02;0.60;99.90
46890;DHT22;32625;51.080;16.970;2022-12-11T01:58:33;0.60;99.90
46890;DHT22;32625;51.080;16.970;2022-12-11T02:01:05;0.60;99.90
46890;DHT22;32625;51.080;16.970;2022-12-11T02:03:32;0.60;99.90
46890;DHT22;32625;51.080;16.970;2022-12-11T02:06:00;0.60;99.90
46890;DHT22;32625;51.080;16.970;2022-12-11T02:08:28;0.50;99.90
46890;DHT22;32625;51.080;16.970;2022-12-11T02:11:16;0.50;99.90
46890;DHT22;32625;51.080;16.970;2022-12-11T02:13:56;0.50;99.90
46890;DHT22;32625;51.080;16.970;2022-12-11T02:16:37;0.50;99.90
46890;DHT22;32625;51.080;16.970;2022-12-11T02:22:01;0.60;99.90
46890;DHT22;32625;51.080;16.970;2022-12-11T02:27:43;0.50;99.90
46890;DHT22;32625;51.080;16.970;2022-12-11T02:30:13;0.40;99.90
46890;DHT22;32625;51.080;16.970;2022-12-11T02:32:57;0.40;99.90
46890;DHT22;32625;51.080;16.970;2022-12-11T02:35:32;0.50;99.90
46890;DHT22;32625;51.080;16.970;2022-12-11T02:38:07;0.60;99.90
46890;DHT22;32625;51.080;16.970;2022-12-11T02:40:38;0.50;99.90
46890;DHT22;32625;51.080;16.970;2022-12-11T02:43:09;0.40;99.90
46890;DHT22;32625;51.080;16.970;2022-12-11T02:45:39;0.50;99.90
46890;DHT22;32625;51.080;16.970;2022-12-11T02:48:32;0.60;99.90
46890;DHT22;32625;51.080;16.970;2022-12-11T02:51:00;0.60;99.90
46890;DHT22;32625;51.080;16.970;2022-12-11T02:53:30;0.50;99.90
46890;DHT22;32625;51.080;16.970;2022-12-11T02:56:28;0.40;99.90
46890;DHT22;32625;51.080;16.970;2022-12-11T02:59:04;0.40;99.90
46890;DHT22;32625;51.080;16.970;2022-12-11T03:01:33;0.40;99.90
46890;DHT22;32625;51.080;16.970;2022-12-11T03:04:00;0.30;99.90
46890;DHT22;32625;51.080;16.970;2022-12-11T03:06:40;0.30;99.90
46890;DHT22;32625;51.080;16.970;2022-12-11T03:09:09;0.30;99.90
46890;DHT22;32625;51.080;16.970;2022-12-11T03:11:36;0.50;99.90
46890;DHT22;32625;51.080;16.970;2022-12-11T03:14:03;0.50;99.90
46890;DHT22;32625;51.080;16.970;2022-12-11T03:16:36;0.50;99.90
46890;DHT22;32625;51.080;16.970;2022-12-11T03:19:21;0.50;99.90
46890;DHT22;32625;51.080;16.970;2022-12-11T03:22:00;0.50;99.90
46890;DHT22;32625;51.080;16.970;2022-12-11T03:24:42;0.30;99.90
46890;DHT22;32625;51.080;16.970;2022-12-11T03:30:00;0.30;99.90
46890;DHT22;32625;51.080;16.970;2022-12-11T03:32:32;0.40;99.90
46890;DHT22;32625;51.080;16.970;2022-12-11T03:35:12;0.30;99.90
46890;DHT22;32625;51.080;16.970;2022-12-11T03:37:41;0.20;99.90
46890;DHT22;32625;51.080;16.970;2022-12-11T03:40:14;0.20;99.90
46890;DHT22;32625;51.080;16.970;2022-12-11T03:42:44;0.10;99.90
46890;DHT22;32625;51.080;16.970;2022-12-11T03:45:12;0.10;99.90
46890;DHT22;32625;51.080;16.970;2022-12-11T03:47:40;0.20;99.90
46890;DHT22;32625;51.080;16.970;2022-12-11T03:50:10;0.10;99.90
46890;DHT22;32625;51.080;16.970;2022-12-11T03:52:40;0.10;99.90
46890;DHT22;32625;51.080;16.970;2022-12-11T03:55:14;0.30;99.90
46890;DHT22;32625;51.080;16.970;2022-12-11T03:57:43;0.20;99.90
46890;DHT22;32625;51.080;16.970;2022-12-11T04:00:13;0.30;99.90
46890;DHT22;32625;51.080;16.970;2022-12-11T04:02:41;0.10;99.90
46890;DHT22;32625;51.080;16.970;2022-12-11T04:05:16;0.10;99.90
46890;DHT22;32625;51.080;16.970;2022-12-11T04:07:46;0.10;99.90
46890;DHT22;32625;51.080;16.970;2022-12-11T04:10:13;0.10;99.90
46890;DHT22;32625;51.080;16.970;2022-12-11T04:12:41;0.20;99.90
46890;DHT22;32625;51.080;16.970;2022-12-11T04:15:08;0.10;99.90
46890;DHT22;32625;51.080;16.970;2022-12-11T04:17:36;0.10;99.90
46890;DHT22;32625;51.080;16.970;2022-12-11T04:20:21;0.10;99.90
46890;DHT22;32625;51.080;16.970;2022-12-11T04:23:13;0.10;99.90
46890;DHT22;32625;51.080;16.970;2022-12-11T04:26:06;0.10;99.90
46890;DHT22;32625;51.080;16.970;2022-12-11T04:28:34;0.10;99.90
46890;DHT22;32625;51.080;16.970;2022-12-11T04:31:03;0.10;99.90
46890;DHT22;32625;51.080;16.970;2022-12-11T04:33:30;0.20;99.90
46890;DHT22;32625;51.080;16.970;2022-12-11T04:35:59;0.20;99.90
46890;DHT22;32625;51.080;16.970;2022-12-11T04:38:28;0.20;99.90
46890;DHT22;32625;51.080;16.970;2022-12-11T04:40:58;0.10;99.90
46890;DHT22;32625;51.080;16.970;2022-12-11T04:43:26;0.00;99.90
46890;DHT22;32625;51.080;16.970;2022-12-11T04:46:03;0.10;99.90
46890;DHT22;32625;51.080;16.970;2022-12-11T04:48:31;0.20;99.90
46890;DHT22;32625;51.080;16.970;2022-12-11T04:50:58;0.20;99.90
46890;DHT22;32625;51.080;16.970;2022-12-11T04:53:26;0.30;99.90
46890;DHT22;32625;51.080;16.970;2022-12-11T04:55:54;0.40;99.90
46890;DHT22;32625;51.080;16.970;2022-12-11T04:58:23;0.40;99.90
46890;DHT22;32625;51.080;16.970;2022-12-11T05:00:51;0.10;99.90
46890;DHT22;32625;51.080;16.970;2022-12-11T05:03:18;0.00;99.90
46890;DHT22;32625;51.080;16.970;2022-12-11T05:05:51;0.10;99.90
46890;DHT22;32625;51.080;16.970;2022-12-11T05:08:20;0.10;99.90
46890;DHT22;32625;51.080;16.970;2022-12-11T05:10:57;0.00;99.90
46890;DHT22;32625;51.080;16.970;2022-12-11T05:13:26;0.00;99.90
46890;DHT22;32625;51.080;16.970;2022-12-11T05:16:23;0.10;99.90
46890;DHT22;32625;51.080;16.970;2022-12-11T05:18:50;0.00;99.90
46890;DHT22;32625;51.080;16.970;2022-12-11T05:21:20;0.00;99.90
46890;DHT22;32625;51.080;16.970;2022-12-11T05:23:48;0.10;99.90
46890;DHT22;32625;51.080;16.970;2022-12-11T05:26:18;0.00;99.90
46890;DHT22;32625;51.080;16.970;2022-12-11T05:28:49;-0.10;99.90
46890;DHT22;32625;51.080;16.970;2022-12-11T05:31:24;0.10;99.90
46890;DHT22;32625;51.080;16.970;2022-12-11T05:33:52;0.00;99.90
46890;DHT22;32625;51.080;16.970;2022-12-11T05:36:28;-0.40;99.90
46890;DHT22;32625;51.080;16.970;2022-12-11T05:38:58;0.00;99.90
46890;DHT22;32625;51.080;16.970;2022-12-11T05:41:28;0.00;99.90
46890;DHT22;32625;51.080;16.970;2022-12-11T05:43:56;-0.10;99.90
46890;DHT22;32625;51.080;16.970;2022-12-11T05:46:26;-0.10;99.90
46890;DHT22;32625;51.080;16.970;2022-12-11T05:48:56;0.00;99.90
46890;DHT22;32625;51.080;16.970;2022-12-11T05:51:25;-0.10;99.90
46890;DHT22;32625;51.080;16.970;2022-12-11T05:53:53;-0.10;99.90
46890;DHT22;32625;51.080;16.970;2022-12-11T05:56:23;-0.10;99.90
46890;DHT22;32625;51.080;16.970;2022-12-11T05:58:51;-0.20;99.90
46890;DHT22;32625;51.080;16.970;2022-12-11T06:01:28;-0.20;99.90
46890;DHT22;32625;51.080;16.970;2022-12-11T06:03:56;-0.30;99.90
46890;DHT22;32625;51.080;16.970;2022-12-11T06:06:25;-0.20;99.90
46890;DHT22;32625;51.080;16.970;2022-12-11T06:08:54;-0.20;99.90
46890;DHT22;32625;51.080;16.970;2022-12-11T06:11:22;-0.20;99.90
46890;DHT22;32625;51.080;16.970;2022-12-11T06:13:51;-0.20;99.90
46890;DHT22;32625;51.080;16.970;2022-12-11T06:16:22;-0.10;99.90
46890;DHT22;32625;51.080;16.970;2022-12-11T06:18:51;0.10;99.90
46890;DHT22;32625;51.080;16.970;2022-12-11T06:21:28;0.00;99.90
46890;DHT22;32625;51.080;16.970;2022-12-11T06:23:58;0.00;99.90
46890;DHT22;32625;51.080;16.970;2022-12-11T06:26:26;0.00;99.90
46890;DHT22;32625;51.080;16.970;2022-12-11T06:28:53;0.00;99.90
46890;DHT22;32625;51.080;16.970;2022-12-11T06:31:21;0.00;99.90
46890;DHT22;32625;51.080;16.970;2022-12-11T06:33:48;-0.10;99.90
46890;DHT22;32625;51.080;16.970;2022-12-11T06:36:19;-0.10;99.90
46890;DHT22;32625;51.080;16.970;2022-12-11T06:38:46;-0.10;99.90
46890;DHT22;32625;51.080;16.970;2022-12-11T06:41:30;-0.20;99.90
46890;DHT22;32625;51.080;16.970;2022-12-11T06:43:57;-0.30;99.90
46890;DHT22;32625;51.080;16.970;2022-12-11T06:46:24;-0.20;99.90
46890;DHT22;32625;51.080;16.970;2022-12-11T06:48:51;-0.20;99.90
46890;DHT22;32625;51.080;16.970;2022-12-11T06:51:21;0.00;99.90
46890;DHT22;32625;51.080;16.970;2022-12-11T06:53:55;0.00;99.90
46890;DHT22;32625;51.080;16.970;2022-12-11T06:56:24;-0.10;99.90
46890;DHT22;32625;51.080;16.970;2022-12-11T06:58:52;-0.10;99.90
46890;DHT22;32625;51.080;16.970;2022-12-11T07:01:23;-0.10;99.90
46890;DHT22;32625;51.080;16.970;2022-12-11T07:03:55;-0.10;99.90
46890;DHT22;32625;51.080;16.970;2022-12-11T07:06:23;-0.10;99.90
46890;DHT22;32625;51.080;16.970;2022-12-11T07:08:51;-0.20;99.90
46890;DHT22;32625;51.080;16.970;2022-12-11T07:11:19;-0.20;99.90
46890;DHT22;32625;51.080;16.970;2022-12-11T07:13:47;-0.20;99.90
46890;DHT22;32625;51.080;16.970;2022-12-11T07:16:16;-0.10;99.90
46890;DHT22;32625;51.080;16.970;2022-12-11T07:18:48;-0.20;99.90
46890;DHT22;32625;51.080;16.970;2022-12-11T07:21:18;-0.10;99.90
46890;DHT22;32625;51.080;16.970;2022-12-11T07:23:46;-0.10;99.90
46890;DHT22;32625;51.080;16.970;2022-12-11T07:26:16;-0.10;99.90
46890;DHT22;32625;51.080;16.970;2022-12-11T07:28:44;-0.20;99.90
46890;DHT22;32625;51.080;16.970;2022-12-11T07:31:14;-0.20;99.90
46890;DHT22;32625;51.080;16.970;2022-12-11T07:33:41;-0.10;99.90
46890;DHT22;32625;51.080;16.970;2022-12-11T07:36:11;-0.10;99.90
46890;DHT22;32625;51.080;16.970;2022-12-11T07:38:39;0.00;99.90
46890;DHT22;32625;51.080;16.970;2022-12-11T07:41:10;0.00;99.90
46890;DHT22;32625;51.080;16.970;2022-12-11T07:43:38;-0.10;99.90
46890;DHT22;32625;51.080;16.970;2022-12-11T07:46:20;0.00;99.90
46890;DHT22;32625;51.080;16.970;2022-12-11T07:48:48;-0.10;99.90
46890;DHT22;32625;51.080;16.970;2022-12-11T07:53:44;-0.10;99.90
46890;DHT22;32625;51.080;16.970;2022-12-11T07:56:12;0.00;99.90
46890;DHT22;32625;51.080;16.970;2022-12-11T07:58:40;-0.10;99.90
46890;DHT22;32625;51.080;16.970;2022-12-11T08:01:16;-0.10;99.90
46890;DHT22;32625;51.080;16.970;2022-12-11T08:03:43;0.00;99.90
46890;DHT22;32625;51.080;16.970;2022-12-11T08:06:11;0.00;99.90
46890;DHT22;32625;51.080;16.970;2022-12-11T08:08:39;0.00;99.90
46890;DHT22;32625;51.080;16.970;2022-12-11T08:11:10;-0.40;99.90
46890;DHT22;32625;51.080;16.970;2022-12-11T08:13:38;0.00;99.90
46890;DHT22;32625;51.080;16.970;2022-12-11T08:16:10;-0.10;99.90
46890;DHT22;32625;51.080;16.970;2022-12-11T08:18:40;0.00;99.90
46890;DHT22;32625;51.080;16.970;2022-12-11T08:21:11;0.00;99.90
46890;DHT22;32625;51.080;16.970;2022-12-11T08:23:39;0.00;99.90
46890;DHT22;32625;51.080;16.970;2022-12-11T08:26:09;-0.20;99.90
46890;DHT22;32625;51.080;16.970;2022-12-11T08:28:37;-0.20;99.90
46890;DHT22;32625;51.080;16.970;2022-12-11T08:31:06;-0.10;99.90
46890;DHT22;32625;51.080;16.970;2022-12-11T08:33:35;-0.10;99.90
46890;DHT22;32625;51.080;16.970;2022-12-11T08:36:07;-0.10;99.90
46890;DHT22;32625;51.080;16.970;2022-12-11T08:38:35;0.00;99.90
46890;DHT22;32625;51.080;16.970;2022-12-11T08:41:29;-0.10;99.90
46890;DHT22;32625;51.080;16.970;2022-12-11T08:43:57;-0.20;99.90
46890;DHT22;32625;51.080;16.970;2022-12-11T08:46:29;-0.20;99.90
46890;DHT22;32625;51.080;16.970;2022-12-11T08:48:56;-0.10;99.90
46890;DHT22;32625;51.080;16.970;2022-12-11T08:51:27;-0.10;99.90
46890;DHT22;32625;51.080;16.970;2022-12-11T08:53:57;0.00;99.90
46890;DHT22;32625;51.080;16.970;2022-12-11T08:56:25;-0.10;99.90
46890;DHT22;32625;51.080;16.970;2022-12-11T08:58:53;-0.10;99.90
46890;DHT22;32625;51.080;16.970;2022-12-11T09:01:23;-0.20;99.90
46890;DHT22;32625;51.080;16.970;2022-12-11T09:03:52;-0.20;99.90
46890;DHT22;32625;51.080;16.970;2022-12-11T09:06:21;0.10;99.90
46890;DHT22;32625;51.080;16.970;2022-12-11T09:08:50;-0.10;99.90
46890;DHT22;32625;51.080;16.970;2022-12-11T09:11:24;-0.10;99.90
46890;DHT22;32625;51.080;16.970;2022-12-11T09:13:53;0.00;99.90
46890;DHT22;32625;51.080;16.970;2022-12-11T09:16:22;0.00;99.90
46890;DHT22;32625;51.080;16.970;2022-12-11T09:18:51;0.20;99.90
46890;DHT22;32625;51.080;16.970;2022-12-11T09:21:23;-0.10;99.90
46890;DHT22;32625;51.080;16.970;2022-12-11T09:23:59;-0.10;99.90
46890;DHT22;32625;51.080;16.970;2022-12-11T09:26:28;-0.10;99.90
46890;DHT22;32625;51.080;16.970;2022-12-11T09:28:57;-0.10;99.90
46890;DHT22;32625;51.080;16.970;2022-12-11T09:31:30;-0.10;99.90
46890;DHT22;32625;51.080;16.970;2022-12-11T09:34:02;-0.10;99.90
46890;DHT22;32625;51.080;16.970;2022-12-11T09:36:29;-0.10;99.90
46890;DHT22;32625;51.080;16.970;2022-12-11T09:39:05;-0.20;99.90
46890;DHT22;32625;51.080;16.970;2022-12-11T09:46:38;-0.20;99.90
46890;DHT22;32625;51.080;16.970;2022-12-11T09:54:42;-0.40;99.90
46890;DHT22;32625;51.080;16.970;2022-12-11T10:00:10;-0.30;99.90
46890;DHT22;32625;51.080;16.970;2022-12-11T10:05:54;-0.20;99.90
46890;DHT22;32625;51.080;16.970;2022-12-11T10:16:50;-0.20;99.90
46890;DHT22;32625;51.080;16.970;2022-12-11T10:19:27;-0.10;99.90
46890;DHT22;32625;51.080;16.970;2022-12-11T10:21:55;-0.10;99.90
46890;DHT22;32625;51.080;16.970;2022-12-11T10:27:19;-0.20;99.90
46890;DHT22;32625;51.080;16.970;2022-12-11T10:30:13;-0.10;99.90
46890;DHT22;32625;51.080;16.970;2022-12-11T10:35:47;-0.20;99.90
46890;DHT22;32625;51.080;16.970;2022-12-11T10:43:40;-0.10;99.90
46890;DHT22;32625;51.080;16.970;2022-12-11T10:46:15;-0.20;99.90
46890;DHT22;32625;51.080;16.970;2022-12-11T10:48:47;-0.20;99.90
46890;DHT22;32625;51.080;16.970;2022-12-11T10:51:16;-0.30;99.90
46890;DHT22;32625;51.080;16.970;2022-12-11T10:53:51;-0.40;99.90
46890;DHT22;32625;51.080;16.970;2022-12-11T10:56:31;-0.20;99.90
46890;DHT22;32625;51.080;16.970;2022-12-11T10:58:59;-0.30;99.90
46890;DHT22;32625;51.080;16.970;2022-12-11T11:01:30;0.00;99.90
46890;DHT22;32625;51.080;16.970;2022-12-11T11:04:15;-0.30;99.90
46890;DHT22;32625;51.080;16.970;2022-12-11T11:06:45;-0.30;99.90
46890;DHT22;32625;51.080;16.970;2022-12-11T11:09:34;-0.40;99.90
46890;DHT22;32625;51.080;16.970;2022-12-11T11:12:01;-0.50;99.90
46890;DHT22;32625;51.080;16.970;2022-12-11T11:14:33;-0.40;99.90
46890;DHT22;32625;51.080;16.970;2022-12-11T11:17:01;-0.40;99.90
46890;DHT22;32625;51.080;16.970;2022-12-11T11:19:35;-0.40;99.90
46890;DHT22;32625;51.080;16.970;2022-12-11T11:22:13;-0.30;99.90
46890;DHT22;32625;51.080;16.970;2022-12-11T11:24:44;-0.40;99.90
46890;DHT22;32625;51.080;16.970;2022-12-11T11:30:03;-0.50;99.90
46890;DHT22;32625;51.080;16.970;2022-12-11T11:32:38;-0.50;99.90
46890;DHT22;32625;51.080;16.970;2022-12-11T11:35:14;-0.60;99.90
46890;DHT22;32625;51.080;16.970;2022-12-11T11:40:45;-0.50;99.90
46890;DHT22;32625;51.080;16.970;2022-12-11T11:43:19;-0.40;99.90
46890;DHT22;32625;51.080;16.970;2022-12-11T11:45:51;-0.50;99.90
46890;DHT22;32625;51.080;16.970;2022-12-11T11:51:30;-0.40;99.90
46890;DHT22;32625;51.080;16.970;2022-12-11T11:54:02;-0.40;99.90
46890;DHT22;32625;51.080;16.970;2022-12-11T11:56:36;-0.40;99.90
46890;DHT22;32625;51.080;16.970;2022-12-11T12:01:42;-0.50;99.90
46890;DHT22;32625;51.080;16.970;2022-12-11T12:04:11;-0.40;99.90
46890;DHT22;32625;51.080;16.970;2022-12-11T12:26:34;-0.70;99.90
46890;DHT22;32625;51.080;16.970;2022-12-11T12:37:20;-0.50;99.90
46890;DHT22;32625;51.080;16.970;2022-12-11T12:40:27;-0.40;99.90
46890;DHT22;32625;51.080;16.970;2022-12-11T12:43:03;-0.60;99.90
46890;DHT22;32625;51.080;16.970;2022-12-11T12:48:12;-0.60;99.90
46890;DHT22;32625;51.080;16.970;2022-12-11T12:50:45;-0.50;99.90
46890;DHT22;32625;51.080;16.970;2022-12-11T12:53:16;-0.50;99.90
46890;DHT22;32625;51.080;16.970;2022-12-11T12:55:45;-0.50;99.90
46890;DHT22;32625;51.080;16.970;2022-12-11T12:58:47;-0.60;99.90
46890;DHT22;32625;51.080;16.970;2022-12-11T13:01:22;-0.60;99.90
46890;DHT22;32625;51.080;16.970;2022-12-11T13:04:02;-0.70;99.90
46890;DHT22;32625;51.080;16.970;2022-12-11T13:06:39;-0.60;99.90
46890;DHT22;32625;51.080;16.970;2022-12-11T13:09:25;-0.70;99.90
46890;DHT22;32625;51.080;16.970;2022-12-11T13:11:55;-0.70;99.90
46890;DHT22;32625;51.080;16.970;2022-12-11T13:14:30;-0.70;99.90
46890;DHT22;32625;51.080;16.970;2022-12-11T13:17:22;-0.70;99.90
46890;DHT22;32625;51.080;16.970;2022-12-11T13:20:05;-0.60;99.90
46890;DHT22;32625;51.080;16.970;2022-12-11T13:22:50;-0.70;99.90
46890;DHT22;32625;51.080;16.970;2022-12-11T13:25:26;-0.70;99.90
46890;DHT22;32625;51.080;16.970;2022-12-11T13:28:05;-0.80;99.90
46890;DHT22;32625;51.080;16.970;2022-12-11T13:30:33;-0.50;99.90
46890;DHT22;32625;51.080;16.970;2022-12-11T13:33:06;-0.80;99.90
46890;DHT22;32625;51.080;16.970;2022-12-11T13:35:40;-0.60;99.90
46890;DHT22;32625;51.080;16.970;2022-12-11T13:38:15;-0.60;99.90
46890;DHT22;32625;51.080;16.970;2022-12-11T13:40:45;-0.70;99.90
46890;DHT22;32625;51.080;16.970;2022-12-11T13:43:24;-0.60;99.90
46890;DHT22;32625;51.080;16.970;2022-12-11T13:45:55;-0.40;99.90
46890;DHT22;32625;51.080;16.970;2022-12-11T13:48:28;-0.60;99.90
46890;DHT22;32625;51.080;16.970;2022-12-11T13:50:58;-0.60;99.90
46890;DHT22;32625;51.080;16.970;2022-12-11T13:53:26;-0.60;99.90
46890;DHT22;32625;51.080;16.970;2022-12-11T13:56:02;-0.40;99.90
46890;DHT22;32625;51.080;16.970;2022-12-11T13:58:33;-0.70;99.90
46890;DHT22;32625;51.080;16.970;2022-12-11T14:01:20;-0.70;99.90
46890;DHT22;32625;51.080;16.970;2022-12-11T14:04:06;-0.70;99.90
46890;DHT22;32625;51.080;16.970;2022-12-11T14:06:35;-0.80;99.90
46890;DHT22;32625;51.080;16.970;2022-12-11T14:09:05;-0.70;99.90
46890;DHT22;32625;51.080;16.970;2022-12-11T14:11:36;-0.80;99.90
46890;DHT22;32625;51.080;16.970;2022-12-11T14:14:15;-0.50;99.90
46890;DHT22;32625;51.080;16.970;2022-12-11T14:16:46;-0.70;99.90
46890;DHT22;32625;51.080;16.970;2022-12-11T14:19:18;-0.70;99.90
46890;DHT22;32625;51.080;16.970;2022-12-11T14:22:04;-0.60;99.90
46890;DHT22;32625;51.080;16.970;2022-12-11T14:24:33;-0.60;99.90
46890;DHT22;32625;51.080;16.970;2022-12-11T14:27:01;-0.60;99.90
46890;DHT22;32625;51.080;16.970;2022-12-11T14:29:32;-0.70;99.90
46890;DHT22;32625;51.080;16.970;2022-12-11T14:32:04;-0.60;99.90
46890;DHT22;32625;51.080;16.970;2022-12-11T14:34:43;-0.70;99.90
46890;DHT22;32625;51.080;16.970;2022-12-11T14:37:13;-0.70;99.90
46890;DHT22;32625;51.080;16.970;2022-12-11T14:40:12;-0.70;99.90
46890;DHT22;32625;51.080;16.970;2022-12-11T14:42:45;-0.80;99.90
46890;DHT22;32625;51.080;16.970;2022-12-11T14:45:23;-0.80;99.90
46890;DHT22;32625;51.080;16.970;2022-12-11T14:47:56;-0.80;99.90
46890;DHT22;32625;51.080;16.970;2022-12-11T14:50:34;-0.70;99.90
46890;DHT22;32625;51.080;16.970;2022-12-11T14:53:12;-0.90;99.90
46890;DHT22;32625;51.080;16.970;2022-12-11T14:55:41;-0.90;99.90
46890;DHT22;32625;51.080;16.970;2022-12-11T14:58:18;-0.80;99.90
46890;DHT22;32625;51.080;16.970;2022-12-11T15:01:02;-0.90;99.90
46890;DHT22;32625;51.080;16.970;2022-12-11T15:03:33;-0.90;99.90
46890;DHT22;32625;51.080;16.970;2022-12-11T15:06:02;-0.80;99.90
46890;DHT22;32625;51.080;16.970;2022-12-11T15:08:32;-0.80;99.90
46890;DHT22;32625;51.080;16.970;2022-12-11T15:11:03;-0.80;99.90
46890;DHT22;32625;51.080;16.970;2022-12-11T15:13:33;-0.70;99.90
46890;DHT22;32625;51.080;16.970;2022-12-11T15:16:01;-0.80;99.90
46890;DHT22;32625;51.080;16.970;2022-12-11T15:18:31;-0.70;99.90
46890;DHT22;32625;51.080;16.970;2022-12-11T15:21:02;-0.90;99.90
46890;DHT22;32625;51.080;16.970;2022-12-11T15:23:30;-0.80;99.90
46890;DHT22;32625;51.080;16.970;2022-12-11T15:25:58;-0.90;99.90
46890;DHT22;32625;51.080;16.970;2022-12-11T15:28:33;-1.00;99.90
46890;DHT22;32625;51.080;16.970;2022-12-11T15:31:06;-0.90;99.90
46890;DHT22;32625;51.080;16.970;2022-12-11T15:33:44;-0.90;99.90
46890;DHT22;32625;51.080;16.970;2022-12-11T15:36:29;-0.90;99.90
46890;DHT22;32625;51.080;16.970;2022-12-11T15:38:57;-1.00;99.90
46890;DHT22;32625;51.080;16.970;2022-12-11T15:41:25;-1.00;99.90
46890;DHT22;32625;51.080;16.970;2022-12-11T15:43:54;-0.90;99.90
46890;DHT22;32625;51.080;16.970;2022-12-11T15:46:26;-0.90;99.90
46890;DHT22;32625;51.080;16.970;2022-12-11T15:48:55;-1.10;99.90
46890;DHT22;32625;51.080;16.970;2022-12-11T15:51:23;-1.10;99.90
46890;DHT22;32625;51.080;16.970;2022-12-11T15:53:51;-1.10;99.90
46890;DHT22;32625;51.080;16.970;2022-12-11T15:56:18;-1.00;99.90
46890;DHT22;32625;51.080;16.970;2022-12-11T15:58:46;-0.70;99.90
46890;DHT22;32625;51.080;16.970;2022-12-11T16:01:14;-1.00;99.90
46890;DHT22;32625;51.080;16.970;2022-12-11T16:03:42;-1.00;99.90
46890;DHT22;32625;51.080;16.970;2022-12-11T16:06:11;-1.00;99.90
46890;DHT22;32625;51.080;16.970;2022-12-11T16:08:39;-1.00;99.90
46890;DHT22;32625;51.080;16.970;2022-12-11T16:11:06;-1.00;99.90
46890;DHT22;32625;51.080;16.970;2022-12-11T16:13:33;-1.00;99.90
46890;DHT22;32625;51.080;16.970;2022-12-11T16:16:01;-1.00;99.90
46890;DHT22;32625;51.080;16.970;2022-12-11T16:18:28;-1.10;99.90
46890;DHT22;32625;51.080;16.970;2022-12-11T16:20:55;-1.10;99.90
46890;DHT22;32625;51.080;16.970;2022-12-11T16:23:22;-1.00;99.90
46890;DHT22;32625;51.080;16.970;2022-12-11T16:25:50;-1.00;99.90
46890;DHT22;32625;51.080;16.970;2022-12-11T16:28:18;-1.10;99.90
46890;DHT22;32625;51.080;16.970;2022-12-11T16:30:47;-1.10;99.90
46890;DHT22;32625;51.080;16.970;2022-12-11T16:33:15;-1.00;99.90
46890;DHT22;32625;51.080;16.970;2022-12-11T16:35:42;-1.10;99.90
46890;DHT22;32625;51.080;16.970;2022-12-11T16:38:09;-1.10;99.90
46890;DHT22;32625;51.080;16.970;2022-12-11T16:40:37;-0.50;99.90
46890;DHT22;32625;51.080;16.970;2022-12-11T16:43:04;-1.10;99.90
46890;DHT22;32625;51.080;16.970;2022-12-11T16:45:32;-0.70;99.90
46890;DHT22;32625;51.080;16.970;2022-12-11T16:48:04;-1.00;99.90
46890;DHT22;32625;51.080;16.970;2022-12-11T16:50:31;-1.10;99.90
46890;DHT22;32625;51.080;16.970;2022-12-11T16:52:58;-0.80;99.90
46890;DHT22;32625;51.080;16.970;2022-12-11T16:55:25;-1.10;99.90
46890;DHT22;32625;51.080;16.970;2022-12-11T16:57:53;-1.20;99.90
46890;DHT22;32625;51.080;16.970;2022-12-11T17:00:21;-1.20;99.90
46890;DHT22;32625;51.080;16.970;2022-12-11T17:02:48;-1.20;99.90
46890;DHT22;32625;51.080;16.970;2022-12-11T17:05:16;-1.10;99.90
46890;DHT22;32625;51.080;16.970;2022-12-11T17:07:43;-1.20;99.90
46890;DHT22;32625;51.080;16.970;2022-12-11T17:10:10;-1.10;99.90
46890;DHT22;32625;51.080;16.970;2022-12-11T17:12:38;-1.10;99.90
46890;DHT22;32625;51.080;16.970;2022-12-11T17:15:05;-1.10;99.90
46890;DHT22;32625;51.080;16.970;2022-12-11T17:17:33;-1.10;99.90
46890;DHT22;32625;51.080;16.970;2022-12-11T17:20:00;-1.10;99.90